AAL2134 KIAH-KCLT
Flight info
| Callsign | AAL2134 |
|---|---|
| Flight time | N/A |
| Altitude | 37000 |
| Route | STRYA8 DPATY MHZ WINAP JYROD BESTT JONZE5 |
| Aircraft | A21N/M-SDE2E3FGHIRWXY/LB1 |
Departure
| Time | 2026-05-05 19:18 |
|---|---|
| Airport | George Bush Intercontinental Airport (KIAH) |
Arrival
| Time | N/A |
|---|---|
| Airport | Charlotte Douglas International Airport (KCLT) |
| Time | Latitude | Longitude | Altitude | Speed | Heading |
|---|---|---|---|---|---|
| 2026-05-05 18:48 | 29.98500 | -95.34853 | 99 ft | 0 kts | 237° |
| 2026-05-05 19:04 | 29.98507 | -95.34847 | 102 ft | 3 kts | 290° |
| 2026-05-05 19:05 | 29.98502 | -95.34833 | 101 ft | 3 kts | 264° |
| 2026-05-05 19:05 | 29.98503 | -95.34812 | 102 ft | 3 kts | 300° |
| 2026-05-05 19:05 | 29.98492 | -95.34803 | 101 ft | 3 kts | 5° |
| 2026-05-05 19:05 | 29.98471 | -95.34806 | 101 ft | 3 kts | 5° |
| 2026-05-05 19:06 | 29.98462 | -95.34807 | 101 ft | 1 kts | 360° |
| 2026-05-05 19:10 | 29.98463 | -95.34808 | 101 ft | 0 kts | 356° |
| 2026-05-05 19:10 | 29.98466 | -95.34809 | 101 ft | 0 kts | 342° |
| 2026-05-05 19:11 | 29.98467 | -95.34811 | 101 ft | 0 kts | 326° |
| 2026-05-05 19:11 | 29.98466 | -95.34823 | 101 ft | 3 kts | 237° |
| 2026-05-05 19:11 | 29.98420 | -95.34822 | 102 ft | 12 kts | 173° |
| 2026-05-05 19:11 | 29.98378 | -95.34899 | 102 ft | 17 kts | 269° |
| 2026-05-05 19:12 | 29.98382 | -95.35030 | 102 ft | 18 kts | 272° |
| 2026-05-05 19:12 | 29.98383 | -95.35158 | 102 ft | 0 kts | 285° |
| 2026-05-05 19:13 | 29.98383 | -95.35159 | 102 ft | 1 kts | 285° |
| 2026-05-05 19:14 | 29.98388 | -95.35180 | 102 ft | 4 kts | 291° |
| 2026-05-05 19:14 | 29.98414 | -95.35217 | 103 ft | 7 kts | 320° |
| 2026-05-05 19:14 | 29.98466 | -95.35254 | 102 ft | 10 kts | 332° |
| 2026-05-05 19:14 | 29.98538 | -95.35298 | 102 ft | 14 kts | 332° |
| 2026-05-05 19:15 | 29.98633 | -95.35357 | 102 ft | 17 kts | 332° |
| 2026-05-05 19:15 | 29.98745 | -95.35424 | 102 ft | 19 kts | 332° |
| 2026-05-05 19:15 | 29.98847 | -95.35487 | 103 ft | 13 kts | 332° |
| 2026-05-05 19:15 | 29.98872 | -95.35576 | 102 ft | 14 kts | 242° |
| 2026-05-05 19:16 | 29.98831 | -95.35672 | 104 ft | 9 kts | 242° |
| 2026-05-05 19:16 | 29.98826 | -95.35682 | 104 ft | 0 kts | 241° |
| 2026-05-05 19:16 | 29.98824 | -95.35685 | 103 ft | 1 kts | 241° |
| 2026-05-05 19:16 | 29.98816 | -95.35702 | 105 ft | 5 kts | 241° |
| 2026-05-05 19:17 | 29.98796 | -95.35734 | 106 ft | 5 kts | 225° |
| 2026-05-05 19:17 | 29.98764 | -95.35754 | 107 ft | 6 kts | 192° |
| 2026-05-05 19:17 | 29.98692 | -95.35730 | 107 ft | 23 kts | 152° |
| 2026-05-05 19:17 | 29.98393 | -95.35551 | 104 ft | 80 kts | 152° |
| 2026-05-05 19:18 | 29.97699 | -95.35132 | 105 ft | 145 kts | 152° |
| 2026-05-05 19:18 | 29.96664 | -95.34499 | 237 ft | 178 kts | 154° |
| 2026-05-05 19:18 | 29.95586 | -95.33817 | 866 ft | 177 kts | 153° |
| 2026-05-05 19:18 | 29.94580 | -95.32982 | 1404 ft | 185 kts | 133° |
| 2026-05-05 19:19 | 29.94332 | -95.31526 | 1960 ft | 200 kts | 77° |
| 2026-05-05 19:19 | 29.95282 | -95.30296 | 2510 ft | 220 kts | 22° |
| 2026-05-05 19:19 | 29.96745 | -95.29949 | 3349 ft | 210 kts | 7° |
| 2026-05-05 19:19 | 29.98233 | -95.29632 | 3880 ft | 226 kts | 8° |
| 2026-05-05 19:20 | 29.99871 | -95.29405 | 4191 ft | 248 kts | 358° |
| 2026-05-05 19:20 | 30.01688 | -95.29592 | 4405 ft | 278 kts | 345° |
| 2026-05-05 19:20 | 30.03679 | -95.29889 | 4860 ft | 298 kts | 5° |
| 2026-05-05 19:20 | 30.05603 | -95.29057 | 5773 ft | 297 kts | 33° |
| 2026-05-05 19:21 | 30.07282 | -95.27680 | 6670 ft | 297 kts | 35° |
| 2026-05-05 19:21 | 30.08949 | -95.26244 | 7418 ft | 301 kts | 37° |
| 2026-05-05 19:21 | 30.10615 | -95.24750 | 8200 ft | 305 kts | 36° |
| 2026-05-05 19:21 | 30.12317 | -95.23270 | 9002 ft | 307 kts | 34° |
| 2026-05-05 19:22 | 30.13460 | -95.22306 | 9586 ft | 307 kts | 33° |
| 2026-05-05 19:22 | 30.15208 | -95.20862 | 10290 ft | 313 kts | 32° |
| 2026-05-05 19:22 | 30.17021 | -95.19389 | 10787 ft | 326 kts | 32° |
| 2026-05-05 19:22 | 30.18940 | -95.17846 | 11089 ft | 345 kts | 32° |
| 2026-05-05 19:23 | 30.20965 | -95.16223 | 11394 ft | 362 kts | 32° |
| 2026-05-05 19:23 | 30.23064 | -95.14538 | 11880 ft | 370 kts | 32° |
| 2026-05-05 19:23 | 30.25190 | -95.12830 | 12505 ft | 375 kts | 32° |
| 2026-05-05 19:23 | 30.27345 | -95.11100 | 13121 ft | 380 kts | 32° |
| 2026-05-05 19:24 | 30.29522 | -95.09352 | 13723 ft | 385 kts | 31° |
| 2026-05-05 19:24 | 30.31743 | -95.07571 | 14286 ft | 390 kts | 31° |
| 2026-05-05 19:24 | 30.33986 | -95.05771 | 14862 ft | 395 kts | 30° |
| 2026-05-05 19:24 | 30.36256 | -95.03948 | 15472 ft | 399 kts | 30° |
| 2026-05-05 19:25 | 30.38545 | -95.02109 | 16086 ft | 403 kts | 30° |
| 2026-05-05 19:25 | 30.40867 | -95.00266 | 16694 ft | 407 kts | 28° |
| 2026-05-05 19:25 | 30.43239 | -94.98442 | 17281 ft | 411 kts | 28° |
| 2026-05-05 19:25 | 30.45640 | -94.96608 | 17870 ft | 415 kts | 27° |
| 2026-05-05 19:26 | 30.48062 | -94.94758 | 18397 ft | 419 kts | 27° |
| 2026-05-05 19:26 | 30.50506 | -94.92888 | 18952 ft | 422 kts | 27° |
| 2026-05-05 19:26 | 30.52959 | -94.91010 | 19466 ft | 425 kts | 26° |
| 2026-05-05 19:26 | 30.55440 | -94.89110 | 19971 ft | 428 kts | 26° |
| 2026-05-05 19:27 | 30.57936 | -94.87196 | 20472 ft | 432 kts | 26° |
| 2026-05-05 19:27 | 30.60448 | -94.85267 | 20973 ft | 435 kts | 26° |
| 2026-05-05 19:27 | 30.62985 | -94.83317 | 21487 ft | 438 kts | 26° |
| 2026-05-05 19:27 | 30.65538 | -94.81355 | 21996 ft | 442 kts | 25° |
| 2026-05-05 19:28 | 30.68107 | -94.79379 | 22497 ft | 445 kts | 25° |
| 2026-05-05 19:28 | 30.70701 | -94.77382 | 22980 ft | 448 kts | 25° |
| 2026-05-05 19:28 | 30.73305 | -94.75376 | 23453 ft | 452 kts | 25° |
| 2026-05-05 19:28 | 30.75938 | -94.73347 | 23827 ft | 455 kts | 25° |
| 2026-05-05 19:29 | 30.78583 | -94.71306 | 24196 ft | 458 kts | 25° |
| 2026-05-05 19:29 | 30.81245 | -94.69251 | 24584 ft | 461 kts | 25° |
| 2026-05-05 19:29 | 30.83926 | -94.67180 | 24959 ft | 463 kts | 25° |
| 2026-05-05 19:29 | 30.86614 | -94.65101 | 25315 ft | 466 kts | 25° |
| 2026-05-05 19:30 | 30.89318 | -94.63009 | 25668 ft | 469 kts | 25° |
| 2026-05-05 19:30 | 30.92042 | -94.60901 | 26011 ft | 471 kts | 25° |
| 2026-05-05 19:30 | 30.94779 | -94.58781 | 26352 ft | 474 kts | 25° |
| 2026-05-05 19:30 | 30.97500 | -94.56587 | 26677 ft | 480 kts | 30° |
| 2026-05-05 19:31 | 31.00016 | -94.53951 | 27073 ft | 492 kts | 40° |
| 2026-05-05 19:31 | 31.02126 | -94.50752 | 27392 ft | 505 kts | 52° |
| 2026-05-05 19:31 | 31.03840 | -94.47138 | 27686 ft | 512 kts | 57° |
| 2026-05-05 19:31 | 31.05442 | -94.43417 | 27973 ft | 515 kts | 58° |
| 2026-05-05 19:32 | 31.07036 | -94.39660 | 28280 ft | 517 kts | 58° |
| 2026-05-05 19:32 | 31.08639 | -94.35891 | 28561 ft | 520 kts | 58° |
| 2026-05-05 19:32 | 31.10249 | -94.32117 | 28836 ft | 522 kts | 58° |
| 2026-05-05 19:32 | 31.11874 | -94.28316 | 29112 ft | 524 kts | 58° |
| 2026-05-05 19:33 | 31.13501 | -94.24511 | 29407 ft | 525 kts | 58° |
| 2026-05-05 19:33 | 31.15135 | -94.20690 | 29792 ft | 525 kts | 58° |
| 2026-05-05 19:33 | 31.16739 | -94.16935 | 30168 ft | 523 kts | 58° |
| 2026-05-05 19:33 | 31.18381 | -94.13087 | 30540 ft | 522 kts | 58° |
| 2026-05-05 19:34 | 31.20001 | -94.09292 | 30801 ft | 524 kts | 58° |
| 2026-05-05 19:34 | 31.21605 | -94.05531 | 31068 ft | 524 kts | 58° |
| 2026-05-05 19:34 | 31.23230 | -94.01717 | 31360 ft | 525 kts | 58° |
| 2026-05-05 19:35 | 31.26479 | -93.94078 | 31954 ft | 525 kts | 58° |
| 2026-05-05 19:35 | 31.28105 | -93.90247 | 32250 ft | 526 kts | 58° |
| 2026-05-05 19:35 | 31.29731 | -93.86416 | 32554 ft | 526 kts | 58° |
| 2026-05-05 19:35 | 31.31270 | -93.82520 | 32857 ft | 529 kts | 62° |
| 2026-05-05 19:36 | 31.32659 | -93.78539 | 33209 ft | 529 kts | 63° |
| 2026-05-05 19:36 | 31.34018 | -93.74551 | 33626 ft | 526 kts | 63° |
| 2026-05-05 19:36 | 31.35372 | -93.70578 | 33907 ft | 527 kts | 63° |
| 2026-05-05 19:36 | 31.36732 | -93.66600 | 34126 ft | 527 kts | 63° |
| 2026-05-05 19:37 | 31.38096 | -93.62616 | 34370 ft | 527 kts | 63° |
| 2026-05-05 19:37 | 31.39457 | -93.58642 | 34634 ft | 526 kts | 63° |
| 2026-05-05 19:37 | 31.40819 | -93.54666 | 34880 ft | 526 kts | 63° |
| 2026-05-05 19:37 | 31.42176 | -93.50699 | 35109 ft | 526 kts | 63° |
| 2026-05-05 19:38 | 31.43535 | -93.46724 | 35336 ft | 525 kts | 63° |
| 2026-05-05 19:38 | 31.44892 | -93.42752 | 35563 ft | 525 kts | 63° |
| 2026-05-05 19:38 | 31.46244 | -93.38787 | 35787 ft | 525 kts | 63° |
| 2026-05-05 19:38 | 31.47599 | -93.34811 | 36008 ft | 524 kts | 63° |
| 2026-05-05 19:39 | 31.48951 | -93.30840 | 36188 ft | 526 kts | 63° |
| 2026-05-05 19:39 | 31.50310 | -93.26845 | 36296 ft | 528 kts | 63° |
| 2026-05-05 19:39 | 31.51667 | -93.22849 | 36478 ft | 528 kts | 63° |
| 2026-05-05 19:39 | 31.53023 | -93.18847 | 36697 ft | 528 kts | 63° |
| 2026-05-05 19:40 | 31.54377 | -93.14849 | 36846 ft | 529 kts | 63° |
| 2026-05-05 19:40 | 31.57084 | -93.06841 | 36873 ft | 528 kts | 63° |